Middlebury, Pennsylvania
Current Conditions -  °F | °C
As of 5:35 AM on Monday 22 Dec 2014 (Local Time) from KN38 Reporting Station
Haze Haze  
Wind Chill: 19°   Ceiling: Unl
Heat Index: 19°   Visibility: 6mi
Dew Point: 18°   Wind: 3mph
Humidity: 93%   Direction: 210°SSW
Pressure: 30.2"   Gusts: NA
Location:  41.8913°N, 77.3093°W
Report Text: KN38 221035Z AUTO 21003KT 6SM BR CLR M07/M08 A3020 RMK AO2
Loading
Personal Weather Stations






























Interactive Weather Map New forecast layout! Learn more

10-Day Weather Forecast

Advertisements
Track Severe Weather on mobile